createdAt,value
2022-12-25T00:00:56.007Z,100107.31
2022-12-25T00:03:28.951Z,100108.95
2022-12-25T00:06:02.770Z,100109.35
2022-12-25T00:08:36.605Z,100114.10
2022-12-25T00:11:14.158Z,100127.87
2022-12-25T00:13:47.588Z,100123.73
2022-12-25T00:16:24.432Z,100122.72
2022-12-25T00:19:01.012Z,100126.23
2022-12-25T00:21:33.863Z,100117.98
2022-12-25T00:24:08.080Z,100111.44
2022-12-25T00:26:41.529Z,100103.84
2022-12-25T00:29:14.628Z,100104.87
2022-12-25T00:31:47.244Z,100097.90
2022-12-25T00:34:20.267Z,100096.20
2022-12-25T00:36:53.824Z,100096.47
2022-12-25T00:39:26.849Z,100096.07
2022-12-25T00:42:17.478Z,100099.80
2022-12-25T00:44:51.638Z,100101.87
2022-12-25T00:47:24.921Z,100101.34
2022-12-25T00:49:57.754Z,100102.23
2022-12-25T00:52:30.566Z,100096.72
2022-12-25T00:55:03.626Z,100102.01
2022-12-25T00:57:37.542Z,100092.59
2022-12-25T01:00:11.899Z,100099.94
2022-12-25T01:02:44.810Z,100098.03
2022-12-25T01:05:18.482Z,100097.89
2022-12-25T01:07:53.912Z,100087.19
2022-12-25T01:10:26.846Z,100091.58
2022-12-25T01:13:00.124Z,100088.88
2022-12-25T01:15:33.938Z,100090.02
2022-12-25T01:18:08.086Z,100090.02
2022-12-25T01:20:41.227Z,100085.63
2022-12-25T01:23:14.592Z,100085.63
2022-12-25T01:25:47.288Z,100086.02
2022-12-25T01:28:20.442Z,100076.88
2022-12-25T01:30:53.261Z,100077.67
2022-12-25T01:33:26.105Z,100078.70
2022-12-25T01:35:58.860Z,100084.37
2022-12-25T01:38:31.909Z,100076.12
2022-12-25T01:41:05.193Z,100069.67
2022-12-25T01:43:41.608Z,100067.99
2022-12-25T01:46:14.412Z,100077.14
2022-12-25T01:48:47.428Z,100071.63
2022-12-25T01:51:27.631Z,100078.97
2022-12-25T01:54:03.496Z,100077.14
2022-12-25T01:56:37.331Z,100075.72
2022-12-25T01:59:11.601Z,100074.30
2022-12-25T02:01:43.488Z,100078.70
2022-12-25T02:04:41.203Z,100081.01
2022-12-25T02:07:21.044Z,100083.72
2022-12-25T02:09:54.674Z,100085.01
2022-12-25T02:12:31.497Z,100082.03
2022-12-25T02:15:15.503Z,100081.89
2022-12-25T02:18:12.704Z,100085.77
2022-12-25T02:21:05.055Z,100086.28
2022-12-25T02:24:05.372Z,100097.34
2022-12-25T02:26:59.965Z,100097.87
2022-12-25T02:29:55.930Z,100103.44
2022-12-25T02:32:32.535Z,100103.17
2022-12-25T02:35:23.425Z,100111.39
2022-12-25T02:38:04.445Z,100111.12
2022-12-25T02:40:46.580Z,100114.35
2022-12-25T02:43:44.934Z,100113.20
2022-12-25T02:46:38.270Z,100109.47
2022-12-25T02:49:36.097Z,100112.31
2022-12-25T02:52:32.646Z,100104.59
2022-12-25T02:55:38.002Z,100103.04
2022-12-25T02:58:32.496Z,100105.48
2022-12-25T03:01:27.759Z,100111.92
2022-12-25T03:04:23.572Z,100112.31
2022-12-25T03:07:06.544Z,100118.63
2022-12-25T03:10:05.048Z,100108.06
2022-12-25T03:12:45.444Z,100109.88
2022-12-25T03:15:38.762Z,100115.78
2022-12-25T03:18:15.691Z,100119.03
2022-12-25T03:21:06.141Z,100111.80
2022-12-25T03:23:59.187Z,100110.65
2022-12-25T03:26:50.095Z,100110.52
2022-12-25T03:29:47.305Z,100108.95
2022-12-25T03:32:44.662Z,100114.25
2022-12-25T03:35:40.309Z,100111.18
2022-12-25T03:38:52.245Z,100102.69
2022-12-25T03:42:05.558Z,100108.08
2022-12-25T03:45:06.180Z,100116.06
2022-12-25T03:48:00.685Z,100114.16
2022-12-25T03:51:00.082Z,100114.78
2022-12-25T03:54:04.348Z,100123.66
2022-12-25T03:56:56.086Z,100125.09
2022-12-25T03:59:46.703Z,100129.34
2022-12-25T04:02:37.702Z,100119.66
2022-12-25T04:05:28.558Z,100124.06
2022-12-25T04:08:19.301Z,100128.42
2022-12-25T04:11:09.957Z,100118.64
2022-12-25T04:13:44.617Z,100116.33
2022-12-25T04:16:35.369Z,100113.89
2022-12-25T04:19:28.271Z,100121.00
2022-12-25T04:22:19.275Z,100122.29
2022-12-25T04:25:09.607Z,100121.63
2022-12-25T04:28:01.162Z,100119.17
2022-12-25T04:30:51.845Z,100126.77
2022-12-25T04:33:42.510Z,100130.11
2022-12-25T04:36:15.350Z,100128.05
2022-12-25T04:38:48.353Z,100135.23
2022-12-25T04:41:21.131Z,100136.25
2022-12-25T04:43:54.305Z,100135.86
2022-12-25T04:46:27.516Z,100145.77
2022-12-25T04:49:00.500Z,100142.92
2022-12-25T04:51:33.238Z,100140.62
2022-12-25T04:54:06.253Z,100137.69
2022-12-25T04:56:43.590Z,100132.55
2022-12-25T04:59:13.557Z,100129.34
2022-12-25T05:01:46.922Z,100140.81
2022-12-25T05:04:20.101Z,100148.77
2022-12-25T05:06:52.931Z,100151.88
2022-12-25T05:09:27.782Z,100155.00
2022-12-25T05:12:00.907Z,100149.36
2022-12-25T05:14:33.757Z,100157.45
2022-12-25T05:17:08.164Z,100164.29
2022-12-25T05:19:41.664Z,100162.33
2022-12-25T05:22:14.666Z,100167.48
2022-12-25T05:24:47.307Z,100164.29
2022-12-25T05:27:20.121Z,100165.45
2022-12-25T05:29:53.321Z,100162.25
2022-12-25T05:32:27.702Z,100163.67
2022-12-25T05:35:00.927Z,100164.07
2022-12-25T05:37:34.056Z,100168.83
2022-12-25T05:40:08.548Z,100173.32
2022-12-25T05:42:41.533Z,100173.45
2022-12-25T05:45:14.391Z,100170.39
2022-12-25T05:47:47.158Z,100179.29
2022-12-25T05:50:20.164Z,100175.16
2022-12-25T05:52:52.836Z,100185.38
2022-12-25T05:55:26.111Z,100182.94
2022-12-25T05:57:59.714Z,100178.81
2022-12-25T06:00:33.555Z,100175.61
2022-12-25T06:03:06.867Z,100185.80
2022-12-25T06:05:41.153Z,100177.17
2022-12-25T06:08:14.191Z,100176.15
2022-12-25T06:10:47.522Z,100175.63
2022-12-25T06:13:20.898Z,100176.16
2022-12-25T06:15:54.211Z,100179.76
2022-12-25T06:18:28.043Z,100176.82
2022-12-25T06:21:00.924Z,100178.73
2022-12-25T06:23:34.507Z,100183.00
2022-12-25T06:26:10.182Z,100184.83
2022-12-25T06:28:43.315Z,100181.72
2022-12-25T06:31:20.318Z,100177.22
2022-12-25T06:33:53.171Z,100186.88
2022-12-25T06:36:29.816Z,100193.09
2022-12-25T06:39:04.325Z,100192.70
2022-12-25T06:41:38.592Z,100195.67
2022-12-25T06:44:11.815Z,100192.17
2022-12-25T06:46:44.863Z,100189.09
2022-12-25T06:49:17.721Z,100195.41
2022-12-25T06:51:50.419Z,100192.73
2022-12-25T06:54:23.291Z,100194.92
2022-12-25T06:56:56.261Z,100202.66
2022-12-25T06:59:29.795Z,100193.88
2022-12-25T07:02:11.772Z,100204.34
2022-12-25T07:04:44.949Z,100208.08
2022-12-25T07:07:18.094Z,100208.61
2022-12-25T07:09:51.493Z,100210.43
2022-12-25T07:12:25.965Z,100210.16
2022-12-25T07:14:58.844Z,100211.33
2022-12-25T07:17:31.941Z,100214.04
2022-12-25T07:20:04.830Z,100214.83
2022-12-25T07:22:37.821Z,100213.53
2022-12-25T07:25:11.336Z,100206.94
2022-12-25T07:27:44.319Z,100216.64
2022-12-25T07:30:17.845Z,100212.10
2022-12-25T07:32:52.121Z,100213.91
2022-12-25T07:35:25.020Z,100204.87
2022-12-25T07:37:58.425Z,100217.00
2022-12-25T07:40:31.782Z,100217.27
2022-12-25T07:43:05.256Z,100213.78
2022-12-25T07:45:39.781Z,100204.73
2022-12-25T07:48:16.921Z,100214.16
2022-12-25T07:50:48.855Z,100211.19
2022-12-25T07:53:22.087Z,100220.34
2022-12-25T07:56:07.234Z,100214.40
2022-12-25T07:58:40.978Z,100209.48
2022-12-25T08:01:21.398Z,100209.46
2022-12-25T08:03:57.553Z,100207.01
2022-12-25T08:06:36.449Z,100209.60
2022-12-25T08:09:14.063Z,100212.81
2022-12-25T08:11:48.574Z,100213.71
2022-12-25T08:14:21.788Z,100217.97
2022-12-25T08:16:55.010Z,100211.08
2022-12-25T08:19:29.467Z,100214.17
2022-12-25T08:22:02.314Z,100209.89
2022-12-25T08:24:35.311Z,100209.34
2022-12-25T08:27:08.323Z,100208.58
2022-12-25T08:29:41.537Z,100212.30
2022-12-25T08:32:15.022Z,100203.89
2022-12-25T08:34:49.582Z,100195.09
2022-12-25T08:37:22.767Z,100195.34
2022-12-25T08:39:55.689Z,100198.94
2022-12-25T08:42:28.450Z,100192.47
2022-12-25T08:45:01.349Z,100193.89
2022-12-25T08:47:34.443Z,100198.14
2022-12-25T08:50:08.831Z,100198.50
2022-12-25T08:52:41.852Z,100197.58
2022-12-25T08:55:14.924Z,100196.13
2022-12-25T08:57:47.854Z,100190.30
2022-12-25T09:00:21.776Z,100192.08
2022-12-25T09:02:54.835Z,100188.56
2022-12-25T09:05:28.724Z,100190.83
2022-12-25T09:08:01.994Z,100192.20
2022-12-25T09:10:37.925Z,100184.55
2022-12-25T09:13:11.363Z,100184.62
2022-12-25T09:15:44.536Z,100186.77
2022-12-25T09:18:17.314Z,100180.52
2022-12-25T09:21:02.121Z,100180.27
2022-12-25T09:23:35.973Z,100172.63
2022-12-25T09:26:12.053Z,100176.75
2022-12-25T09:28:51.436Z,100180.23
2022-12-25T09:31:20.626Z,100174.59
2022-12-25T09:33:57.058Z,100178.46
2022-12-25T09:36:30.157Z,100174.17
2022-12-25T09:39:03.638Z,100180.11
2022-12-25T09:41:53.613Z,100175.28
2022-12-25T09:44:33.963Z,100176.69
2022-12-25T09:47:13.743Z,100176.94
2022-12-25T09:50:05.978Z,100181.17
2022-12-25T09:52:49.332Z,100177.70
2022-12-25T09:55:28.341Z,100181.53
2022-12-25T09:58:03.668Z,100175.64
2022-12-25T10:00:43.421Z,100179.59
2022-12-25T10:03:44.869Z,100172.58
2022-12-25T10:06:28.258Z,100179.52
2022-12-25T10:09:40.750Z,100177.04
2022-12-25T10:12:45.949Z,100178.63
2022-12-25T10:15:58.707Z,100186.41
2022-12-25T10:19:03.241Z,100183.95
2022-12-25T10:21:36.737Z,100186.05
2022-12-25T10:24:29.356Z,100188.41
2022-12-25T10:27:06.400Z,100188.30
2022-12-25T10:29:40.007Z,100191.19
2022-12-25T10:32:12.886Z,100190.35
2022-12-25T10:34:46.086Z,100189.59
2022-12-25T10:37:20.479Z,100189.53
2022-12-25T10:39:53.222Z,100186.63
2022-12-25T10:42:42.353Z,100187.87
2022-12-25T10:45:15.489Z,100197.61
2022-12-25T10:47:54.396Z,100201.66
2022-12-25T10:50:25.995Z,100197.98
2022-12-25T10:53:08.790Z,100194.23
2022-12-25T10:55:42.055Z,100190.34
2022-12-25T10:58:23.456Z,100203.94
2022-12-25T11:01:04.410Z,100210.52
2022-12-25T11:03:40.785Z,100210.65
2022-12-25T11:06:29.898Z,100208.30
2022-12-25T11:09:04.255Z,100212.91
2022-12-25T11:11:38.491Z,100207.90
2022-12-25T11:14:16.272Z,100208.18
2022-12-25T11:16:49.235Z,100217.23
2022-12-25T11:19:34.093Z,100211.26
2022-12-25T11:22:08.682Z,100215.91
2022-12-25T11:24:42.202Z,100211.20
2022-12-25T11:27:27.474Z,100214.32
2022-12-25T11:30:07.829Z,100223.38
2022-12-25T11:32:47.363Z,100225.97
2022-12-25T11:35:21.137Z,100229.45
2022-12-25T11:37:55.329Z,100226.46
2022-12-25T11:40:50.439Z,100233.17
2022-12-25T11:43:41.960Z,100227.06
2022-12-25T11:46:28.697Z,100232.89
2022-12-25T11:49:11.057Z,100230.05
2022-12-25T11:51:46.394Z,100237.94
2022-12-25T11:54:29.287Z,100239.97
2022-12-25T11:57:04.697Z,100244.66
2022-12-25T11:59:51.799Z,100237.25
2022-12-25T12:02:32.451Z,100235.43
2022-12-25T12:05:19.055Z,100228.67
2022-12-25T12:08:01.763Z,100225.72
2022-12-25T12:10:59.153Z,100234.50
2022-12-25T12:13:52.603Z,100231.25
2022-12-25T12:16:25.811Z,100236.76
2022-12-25T12:18:59.292Z,100228.73
2022-12-25T12:21:33.355Z,100225.45
2022-12-25T12:24:22.498Z,100226.63
2022-12-25T12:27:05.662Z,100228.33
2022-12-25T12:29:43.576Z,100229.67
2022-12-25T12:32:40.908Z,100225.95
2022-12-25T12:35:24.166Z,100236.76
2022-12-25T12:38:07.247Z,100232.99
2022-12-25T12:40:48.124Z,100229.80
2022-12-25T12:43:48.550Z,100240.92
2022-12-25T12:46:31.817Z,100241.73
2022-12-25T12:49:27.629Z,100244.86
2022-12-25T12:52:25.788Z,100249.39
2022-12-25T12:55:09.150Z,100252.27
2022-12-25T12:57:43.403Z,100251.98
2022-12-25T13:00:22.946Z,100253.03
2022-12-25T13:03:16.845Z,100250.61
2022-12-25T13:06:18.551Z,100246.12
2022-12-25T13:09:08.013Z,100245.76
2022-12-25T13:11:43.665Z,100251.25
2022-12-25T13:14:20.536Z,100258.53
2022-12-25T13:16:57.101Z,100260.20
2022-12-25T13:19:31.328Z,100260.87
2022-12-25T13:22:07.629Z,100261.41
2022-12-25T13:24:40.916Z,100267.75
2022-12-25T13:27:30.265Z,100274.98
2022-12-25T13:30:20.646Z,100270.98
2022-12-25T13:32:53.925Z,100272.16
2022-12-25T13:35:27.705Z,100272.16
2022-12-25T13:38:01.448Z,100279.16
2022-12-25T13:40:35.471Z,100277.05
2022-12-25T13:43:10.796Z,100275.88
2022-12-25T13:45:44.221Z,100274.70
2022-12-25T13:48:17.695Z,100279.36
2022-12-25T13:50:59.781Z,100271.20
2022-12-25T13:53:33.837Z,100271.75
2022-12-25T13:56:07.150Z,100281.34
2022-12-25T13:58:41.704Z,100278.26
2022-12-25T14:01:17.385Z,100281.89
2022-12-25T14:03:50.656Z,100290.17
2022-12-25T14:06:31.820Z,100290.05
2022-12-25T14:09:06.823Z,100287.09
2022-12-25T14:11:42.517Z,100292.77
2022-12-25T14:14:25.885Z,100293.28
2022-12-25T14:17:00.133Z,100293.01
2022-12-25T14:19:35.821Z,100296.65
2022-12-25T14:22:21.164Z,100293.78
2022-12-25T14:24:54.203Z,100297.66
2022-12-25T14:27:31.936Z,100293.38
2022-12-25T14:30:05.239Z,100298.44
2022-12-25T14:32:42.748Z,100296.12
2022-12-25T14:35:22.974Z,100294.30
2022-12-25T14:37:55.025Z,100296.40
2022-12-25T14:40:31.840Z,100299.63
2022-12-25T14:43:08.220Z,100301.05
2022-12-25T14:45:41.688Z,100303.23
2022-12-25T14:48:25.311Z,100305.33
2022-12-25T14:51:15.067Z,100305.18
2022-12-25T14:53:54.805Z,100303.48
2022-12-25T14:56:29.545Z,100307.00
2022-12-25T14:59:03.180Z,100310.23
2022-12-25T15:01:42.034Z,100305.20
2022-12-25T15:04:17.592Z,100311.68
2022-12-25T15:07:00.777Z,100313.34
2022-12-25T15:09:34.290Z,100320.61
2022-12-25T15:12:07.911Z,100321.25
2022-12-25T15:14:41.236Z,100318.54
2022-12-25T15:17:27.257Z,100322.42
2022-12-25T15:20:01.825Z,100320.23
2022-12-25T15:23:02.465Z,100314.29
2022-12-25T15:25:15.101Z,100311.03
2022-12-25T15:27:48.729Z,100313.47
2022-12-25T15:30:21.680Z,100318.77
2022-12-25T15:32:54.641Z,100314.88
2022-12-25T15:35:29.476Z,100316.70
2022-12-25T15:38:02.867Z,100316.30
2022-12-25T15:40:36.356Z,100327.83
2022-12-25T15:43:39.033Z,100324.56
2022-12-25T15:45:48.211Z,100326.11
2022-12-25T15:48:21.261Z,100318.47
2022-12-25T15:50:54.358Z,100327.77
2022-12-25T15:53:27.416Z,100331.66
2022-12-25T15:56:00.611Z,100330.77
2022-12-25T15:58:33.958Z,100327.77
2022-12-25T16:01:07.230Z,100330.08
2022-12-25T16:03:40.818Z,100329.31
2022-12-25T16:06:19.221Z,100330.61
2022-12-25T16:08:52.511Z,100333.59
2022-12-25T16:11:25.717Z,100331.38
2022-12-25T16:13:59.080Z,100329.99
2022-12-25T16:16:33.970Z,100332.58
2022-12-25T16:19:09.062Z,100338.92
2022-12-25T16:21:46.406Z,100341.27
2022-12-25T16:24:19.400Z,100345.39
2022-12-25T16:26:52.583Z,100349.02
2022-12-25T16:29:25.862Z,100348.77
2022-12-25T16:31:58.883Z,100346.34
2022-12-25T16:34:32.130Z,100343.34
2022-12-25T16:37:05.707Z,100345.82
2022-12-25T16:39:39.848Z,100351.89
2022-12-25T16:42:13.604Z,100349.55
2022-12-25T16:44:49.016Z,100352.27
2022-12-25T16:47:22.080Z,100338.92
2022-12-25T16:49:55.467Z,100345.64
2022-12-25T16:52:30.313Z,100347.06
2022-12-25T16:55:04.569Z,100342.28
2022-12-25T16:57:37.818Z,100348.11
2022-12-25T17:00:13.184Z,100340.62
2022-12-25T17:02:46.663Z,100338.30
2022-12-25T17:05:19.906Z,100339.73
2022-12-25T17:07:53.664Z,100342.68
2022-12-25T17:10:27.086Z,100342.19
2022-12-25T17:13:00.683Z,100342.55
2022-12-25T17:15:34.137Z,100339.23
2022-12-25T17:18:07.533Z,100344.92
2022-12-25T17:20:41.211Z,100341.31
2022-12-25T17:23:14.761Z,100340.42
2022-12-25T17:25:47.781Z,100337.42
2022-12-25T17:28:20.718Z,100340.91
2022-12-25T17:30:54.302Z,100347.11
2022-12-25T17:33:27.880Z,100347.11
2022-12-25T17:36:10.696Z,100348.66
2022-12-25T17:38:44.233Z,100341.91
2022-12-25T17:41:19.579Z,100341.02
2022-12-25T17:43:53.731Z,100342.31
2022-12-25T17:46:29.956Z,100348.26
2022-12-25T17:49:04.215Z,100344.66
2022-12-25T17:51:37.653Z,100352.91
2022-12-25T17:54:11.744Z,100351.86
2022-12-25T17:56:45.301Z,100352.91
2022-12-25T17:59:19.149Z,100351.98
2022-12-25T18:01:53.132Z,100351.09
2022-12-25T18:04:26.490Z,100355.62
2022-12-25T18:06:59.569Z,100351.25
2022-12-25T18:09:33.856Z,100345.02
2022-12-25T18:12:08.208Z,100349.17
2022-12-25T18:14:42.009Z,100341.41
2022-12-25T18:17:15.127Z,100340.88
2022-12-25T18:19:49.792Z,100334.69
2022-12-25T18:22:23.082Z,100343.75
2022-12-25T18:24:56.283Z,100341.03
2022-12-25T18:27:29.122Z,100341.92
2022-12-25T18:30:02.294Z,100343.34
2022-12-25T18:32:37.016Z,100339.72
2022-12-25T18:35:10.956Z,100339.84
2022-12-25T18:37:43.907Z,100346.84
2022-12-25T18:40:17.165Z,100343.48
2022-12-25T18:42:56.363Z,100345.03
2022-12-25T18:45:27.088Z,100339.97
2022-12-25T18:48:02.009Z,100341.64
2022-12-25T18:50:37.868Z,100343.97
2022-12-25T18:53:12.097Z,100353.31
2022-12-25T18:55:45.403Z,100345.95
2022-12-25T18:58:21.169Z,100345.14
2022-12-25T19:00:56.042Z,100343.61
2022-12-25T19:03:29.801Z,100349.27
2022-12-25T19:06:02.740Z,100349.52
2022-12-25T19:08:35.725Z,100343.58
2022-12-25T19:11:10.036Z,100349.65
2022-12-25T19:13:42.783Z,100341.39
2022-12-25T19:16:16.740Z,100349.92
2022-12-25T19:18:50.298Z,100347.61
2022-12-25T19:21:23.634Z,100349.55
2022-12-25T19:23:57.024Z,100346.20
2022-12-25T19:26:30.115Z,100345.92
2022-12-25T19:29:04.022Z,100344.22
2022-12-25T19:31:38.390Z,100350.58
2022-12-25T19:34:12.991Z,100352.36
2022-12-25T19:36:46.366Z,100346.69
2022-12-25T19:39:21.143Z,100347.19
2022-12-25T19:41:54.787Z,100351.59
2022-12-25T19:44:28.799Z,100353.78
2022-12-25T19:47:12.502Z,100357.66
2022-12-25T19:49:53.246Z,100363.98
2022-12-25T19:52:24.376Z,100364.51
2022-12-25T19:55:04.045Z,100366.45
2022-12-25T20:00:36.598Z,100367.07
2022-12-25T20:03:10.972Z,100372.77
2022-12-25T20:05:49.624Z,100372.65
2022-12-25T20:08:23.471Z,100377.30
2022-12-25T20:10:57.425Z,100376.41
2022-12-25T20:13:32.129Z,100376.81
2022-12-25T20:16:10.807Z,100379.40
2022-12-25T20:18:44.478Z,100382.87
2022-12-25T20:21:21.260Z,100379.40
2022-12-25T20:23:55.479Z,100386.23
2022-12-25T20:26:32.394Z,100382.75
2022-12-25T20:29:06.071Z,100381.86
2022-12-25T20:31:39.323Z,100381.86
2022-12-25T20:34:13.896Z,100381.73
2022-12-25T20:36:49.515Z,100381.61
2022-12-25T20:39:24.578Z,100381.98
2022-12-25T20:41:57.737Z,100382.78
2022-12-25T20:44:30.590Z,100386.27
2022-12-25T20:47:03.961Z,100390.55
2022-12-25T20:49:37.037Z,100384.97
2022-12-25T20:52:10.556Z,100383.55
2022-12-25T20:54:43.944Z,100385.52
2022-12-25T20:57:17.022Z,100378.25
2022-12-25T20:59:50.072Z,100384.35
2022-12-25T21:02:35.625Z,100387.55
2022-12-25T21:04:58.546Z,100387.68
2022-12-25T21:07:31.887Z,100384.58
2022-12-25T21:10:06.196Z,100379.77
2022-12-25T21:12:40.335Z,100378.47
2022-12-25T21:15:15.935Z,100383.16
2022-12-25T21:17:49.200Z,100376.16
2022-12-25T21:20:22.511Z,100381.86
2022-12-25T21:22:57.319Z,100381.46
2022-12-25T21:25:32.500Z,100376.81
2022-12-25T21:28:05.853Z,100379.00
2022-12-25T21:30:40.262Z,100379.64
2022-12-25T21:33:34.173Z,100380.04
2022-12-25T21:36:14.579Z,100380.69
2022-12-25T21:38:58.529Z,100381.11
2022-12-25T21:41:32.883Z,100386.80
2022-12-25T21:44:07.062Z,100394.06
2022-12-25T21:46:39.613Z,100394.73
2022-12-25T21:49:12.367Z,100394.46
2022-12-25T21:52:03.161Z,100395.89
2022-12-25T21:54:36.500Z,100397.43
2022-12-25T21:57:11.035Z,100406.62
2022-12-25T21:59:46.427Z,100403.75
2022-12-25T22:02:20.682Z,100395.86
2022-12-25T22:04:54.252Z,100401.97
2022-12-25T22:07:28.913Z,100403.75
2022-12-25T22:10:02.005Z,100402.22
2022-12-25T22:12:53.619Z,100408.69
2022-12-25T22:15:45.156Z,100409.71
2022-12-25T22:18:35.898Z,100410.23
2022-12-25T22:21:08.992Z,100407.52
2022-12-25T22:23:42.307Z,100415.28
2022-12-25T22:26:20.663Z,100420.34
2022-12-25T22:28:50.191Z,100424.98
2022-12-25T22:31:23.226Z,100417.09
2022-12-25T22:33:57.151Z,100420.98
2022-12-25T22:36:30.446Z,100423.56
2022-12-25T22:39:03.532Z,100420.33
2022-12-25T22:41:36.870Z,100423.04
2022-12-25T22:44:18.574Z,100423.16
2022-12-25T22:46:45.100Z,100427.45
2022-12-25T22:49:18.678Z,100428.09
2022-12-25T22:51:52.975Z,100426.94
2022-12-25T22:54:27.135Z,100430.97
2022-12-25T22:57:00.698Z,100433.42
2022-12-25T22:59:33.769Z,100447.13
2022-12-25T23:02:07.046Z,100438.08
2022-12-25T23:04:40.334Z,100446.37
2022-12-25T23:07:14.759Z,100439.90
2022-12-25T23:09:48.843Z,100446.73
2022-12-25T23:12:40.028Z,100452.44
2022-12-25T23:15:13.649Z,100448.16
2022-12-25T23:18:04.327Z,100446.49
2022-12-25T23:20:58.058Z,100444.80
2022-12-25T23:23:48.776Z,100449.32
2022-12-25T23:26:22.947Z,100442.86
2022-12-25T23:29:13.044Z,100456.48
2022-12-25T23:31:48.065Z,100458.94
2022-12-25T23:34:22.042Z,100459.04
2022-12-25T23:36:55.062Z,100463.84
2022-12-25T23:39:28.992Z,100462.55
2022-12-25T23:42:02.326Z,100466.04
2022-12-25T23:44:36.308Z,100472.50
2022-12-25T23:47:09.450Z,100472.38
2022-12-25T23:49:42.673Z,100475.23
2022-12-25T23:52:15.611Z,100471.35
2022-12-25T23:54:50.464Z,100473.28
2022-12-25T23:57:23.478Z,100476.63
2022-12-25T23:59:56.423Z,100470.16
